Terminal Aerodrome Forecast
Issued by NWS North Platte, NE

Home | Current Version | Previous Version | Text Only | Print | Product List | Glossary Off
Versions: 1 2 3 4 5 6 7 8 9 10 11 12

000
FTUS43 KLBF 021135
TAFVTN
TAF
KVTN 021135Z 0212/0312 23006KT P6SM SKC
     FM021500 32007KT P6SM SKC
     FM021800 01010G16KT P6SM SKC
     FM030000 04006KT P6SM SKC
     FM030900 05006KT P6SM SCT120=

USA.gov is the U.S. government's official web portal to all federal, state and local government web resources and services.